International Virtual Aviation Organisation

Russian Federation and Kazakhstan MCD

 
UAAA 060900Z 01003MPS 9999 SCT050 35/04 Q1009 R05R/CLRD65 NOSIG
QNH:(hPa/inHg/mmHg)1009 / 29.8 / 757
QFE:(hPa/inHg/mmHg)926 / 27.35 / 695
Temperature35
Dew Point4
Visibility> 10000
Weather
Cloud CoverSCT (5000);
Transition Height600 m./4300 ft.
Transition LevelFL60
SQUAWK